Main page
METAR-TAF:

METAR-TAF

Airports :

Mitiga International Airport

Tripoli, Libya

latitude: 32-54N, longitude: 13-17E, elevation: 11 m

METAR: missing

Time: 00:04 (22:04 UTC)

Forecast

The report was made 29 hours and 4 minutes ago, at 17:00 UTC
Forecast valid from 17 at 18 UTC to 18 at 18 UTC
Wind 10 kt from the North/Northwest
Visibility 10 km or more
Few clouds at a height of 2500 ft
Becoming
from 16 at 20 UTC to 16 at 22 UTC
Wind 2 kt from variable directions
Becoming
from 17 at 10 UTC to 17 at 12 UTC
Wind 10 kt from the North/Northwest

TAF: HLLM 161700Z 1718/1818 34010KT 9999 FEW025 BECMG 1620/1622 VRB02KT BECMG 1710/1712 34010KT

Weather observations and forecasts of more than 4000 airports (METAR and TAF reports).

The available stations are represented by yellow and red dots on the map.

Hover mouse over dot to see the name of the station.

Then click to see weather observations and forecasts.

To change the map : click on the green buttons with a black cross to zoom in, on the green button with a dash to zoom out, or on the green arrows for adjacent maps.


METAR-TAF: